Time;durP1;ratioP1;P1;durP2;ratioP2;P2;SDS_P1;SDS_P2;PMS_P1;PMS_P2;Temp;Humidity;BMP_temperature;BMP_pressure;BME280_temperature;BME280_humidity;BME280_pressure;Samples;Min_cycle;Max_cycle;Signal;HPM_P1;HPM_P2
2023/12/17 00:00:59;;;;;;;24.77;18.90;;;;;;;6.53;59.35;101088.72;8360753;23;20240;-78
2023/12/17 00:04:22;;;;;;;25.43;19.10;;;;;;;6.17;60.29;101089.00;8362221;23;20181;-77
2023/12/17 00:07:44;;;;;;;24.43;17.93;;;;;;;6.09;60.30;101088.78;8361497;23;20265;-77
2023/12/17 00:11:05;;;;;;;30.03;18.17;;;;;;;6.33;60.79;101089.50;8358702;23;20292;-78
2023/12/17 00:14:27;;;;;;;23.60;17.87;;;;;;;6.14;61.29;101096.44;8358609;23;20193;-78
2023/12/17 00:17:49;;;;;;;25.87;16.53;;;;;;;5.55;62.51;101105.56;8359870;23;20609;-77
2023/12/17 00:21:11;;;;;;;23.87;18.03;;;;;;;6.16;61.89;101110.53;8357609;23;20233;-77
2023/12/17 00:24:33;;;;;;;24.47;17.07;;;;;;;6.40;60.70;101101.41;8360831;23;20319;-78
2023/12/17 00:27:54;;;;;;;23.23;16.07;;;;;;;6.05;61.10;101095.31;8361682;23;20308;-77
2023/12/17 00:31:16;;;;;;;21.83;16.90;;;;;;;5.95;61.46;101093.50;8361746;23;20311;-78
2023/12/17 00:34:37;;;;;;;21.37;16.23;;;;;;;6.10;60.81;101097.63;8362748;23;20308;-78
2023/12/17 00:38:00;;;;;;;24.83;14.97;;;;;;;6.14;61.08;101099.94;8362201;23;20198;-78
2023/12/17 00:41:22;;;;;;;23.30;15.53;;;;;;;6.45;59.94;101091.19;8361161;23;20287;-78
2023/12/17 00:44:43;;;;;;;24.37;16.23;;;;;;;5.90;61.31;101109.91;8361696;23;20260;-78
2023/12/17 00:48:05;;;;;;;25.50;17.13;;;;;;;6.18;60.59;101106.78;8362252;23;20280;-76
2023/12/17 00:51:26;;;;;;;21.77;15.33;;;;;;;5.83;61.39;101102.50;8362117;23;20644;-78
2023/12/17 00:54:49;;;;;;;22.90;15.77;;;;;;;5.78;61.19;101105.47;8361604;23;20631;-78
2023/12/17 00:58:11;;;;;;;20.17;15.83;;;;;;;6.28;60.84;101094.38;8362400;23;20656;-78
2023/12/17 01:01:32;;;;;;;18.03;14.27;;;;;;;5.83;61.47;101107.84;8360755;23;20226;-79
2023/12/17 01:04:54;;;;;;;22.23;16.90;;;;;;;5.80;61.34;101100.03;8361301;23;20256;-78
2023/12/17 01:08:15;;;;;;;19.93;15.10;;;;;;;5.77;61.32;101108.28;8361281;23;20218;-78
2023/12/17 01:11:38;;;;;;;20.20;15.13;;;;;;;6.14;61.04;101099.09;8360354;23;20312;-78
2023/12/17 01:15:00;;;;;;;21.17;15.70;;;;;;;5.92;60.85;101113.34;8361191;23;20268;-78
2023/12/17 01:18:21;;;;;;;21.57;15.73;;;;;;;5.91;60.50;101078.66;8375208;23;20261;-78
2023/12/17 01:21:43;;;;;;;20.90;14.57;;;;;;;6.20;60.57;101112.84;8359425;23;20623;-79
2023/12/17 01:25:05;;;;;;;23.43;16.43;;;;;;;6.11;60.24;101128.78;8361151;23;20624;-76
2023/12/17 01:28:28;;;;;;;19.87;15.10;;;;;;;5.84;61.21;101134.47;8361437;23;20267;-78
2023/12/17 01:31:49;;;;;;;18.97;14.90;;;;;;;5.63;61.54;101121.88;8361490;23;20292;-78
2023/12/17 01:35:11;;;;;;;21.73;15.00;;;;;;;5.48;61.78;101129.25;8361963;23;20190;-78
2023/12/17 01:38:33;;;;;;;23.93;16.37;;;;;;;5.85;62.14;101130.00;8361275;23;20181;-77
2023/12/17 01:41:54;;;;;;;21.23;14.83;;;;;;;5.87;60.95;101126.22;8359434;23;20335;-77
2023/12/17 01:45:17;;;;;;;22.43;14.83;;;;;;;6.05;60.86;101135.50;8361538;23;20786;-78
2023/12/17 01:48:39;;;;;;;19.63;16.07;;;;;;;6.37;60.00;101135.66;8360942;23;20186;-78
2023/12/17 01:52:00;;;;;;;20.17;14.60;;;;;;;6.01;59.16;101141.22;8362106;23;20229;-77
2023/12/17 01:55:22;;;;;;;20.27;14.77;;;;;;;5.89;60.42;101126.94;8361758;23;20214;-78
2023/12/17 01:58:44;;;;;;;19.43;14.37;;;;;;;6.06;60.43;101125.63;8359250;23;20288;-78
2023/12/17 02:02:07;;;;;;;18.47;13.47;;;;;;;6.14;60.49;101120.53;8360892;23;20212;-79
2023/12/17 02:05:29;;;;;;;19.97;13.33;;;;;;;6.28;60.47;101121.16;8362269;23;20232;-78
2023/12/17 02:08:50;;;;;;;17.77;13.67;;;;;;;6.32;59.93;101125.25;8361995;23;20263;-78
2023/12/17 02:12:23;;;;;;;18.23;13.57;;;;;;;5.60;61.35;101127.47;8361937;23;20288;-78
2023/12/17 02:15:45;;;;;;;18.13;12.80;;;;;;;5.94;60.96;101097.13;8362513;23;20247;-78
2023/12/17 02:19:07;;;;;;;17.37;13.13;;;;;;;5.94;61.37;101131.94;8361269;23;20316;-78
2023/12/17 02:22:29;;;;;;;18.10;13.53;;;;;;;5.97;61.26;101119.19;8360417;23;20642;-77
2023/12/17 02:25:52;;;;;;;22.47;13.30;;;;;;;6.19;60.77;101123.72;8361612;23;20313;-78
2023/12/17 02:29:13;;;;;;;18.97;14.07;;;;;;;6.19;60.22;101121.88;8361154;23;20682;-76
2023/12/17 02:32:35;;;;;;;17.30;12.90;;;;;;;6.13;60.32;101116.16;8361798;23;20241;-78
2023/12/17 02:35:56;;;;;;;17.87;13.53;;;;;;;5.88;60.24;101125.25;8362289;23;20654;-78
2023/12/17 02:39:17;;;;;;;23.17;17.77;;;;;;;5.74;61.29;101125.44;8363145;23;20217;-78
2023/12/17 02:42:40;;;;;;;14.73;12.90;;;;;;;5.43;62.20;101123.38;8363471;23;20235;-78
2023/12/17 02:46:02;;;;;;;14.40;12.53;;;;;;;5.85;61.49;101122.78;8363504;23;20186;-76
2023/12/17 02:49:23;;;;;;;14.43;11.67;;;;;;;5.92;61.20;101129.41;8362956;23;20288;-77
2023/12/17 02:52:45;;;;;;;16.10;13.00;;;;;;;6.09;60.79;101110.19;8363567;23;20308;-78
2023/12/17 02:56:07;;;;;;;17.17;13.37;;;;;;;6.26;59.95;101107.00;8361526;23;20270;-77
2023/12/17 02:59:30;;;;;;;18.63;13.63;;;;;;;5.94;60.72;101105.16;8362860;23;20241;-76
2023/12/17 03:02:51;;;;;;;19.23;13.10;;;;;;;6.11;60.50;101097.53;8363724;23;20205;-77
2023/12/17 03:06:13;;;;;;;18.70;14.23;;;;;;;5.46;62.22;101109.78;8363722;23;20217;-77
2023/12/17 03:09:34;;;;;;;15.53;12.37;;;;;;;5.56;62.70;101105.44;8362527;23;20331;-76
2023/12/17 03:12:56;;;;;;;15.53;12.30;;;;;;;5.97;61.53;101111.16;8363339;23;20286;-76
2023/12/17 03:16:18;;;;;;;14.87;12.17;;;;;;;6.06;61.24;101099.72;8360023;23;20264;-77
2023/12/17 03:19:40;;;;;;;15.47;11.83;;;;;;;6.06;60.67;101090.81;8362540;23;20320;-75
2023/12/17 03:23:01;;;;;;;18.43;12.33;;;;;;;5.89;61.04;101092.16;8362762;23;20206;-77
2023/12/17 03:26:23;;;;;;;15.50;12.23;;;;;;;5.96;61.30;101074.63;8363232;23;20200;-77
2023/12/17 03:29:44;;;;;;;17.63;13.83;;;;;;;5.54;61.43;101085.97;8362533;23;21015;-77
2023/12/17 03:33:09;;;;;;;22.13;14.03;;;;;;;6.05;61.25;101065.88;8362682;23;20233;-77
2023/12/17 03:36:30;;;;;;;16.37;13.37;;;;;;;6.11;60.58;101065.38;8362329;23;20324;-77
2023/12/17 03:39:52;;;;;;;19.40;14.07;;;;;;;6.11;60.88;101061.84;8362239;23;20230;-77
2023/12/17 03:43:14;;;;;;;17.43;13.50;;;;;;;6.25;60.56;101064.28;8363778;23;20678;-77
2023/12/17 03:46:35;;;;;;;18.13;13.10;;;;;;;5.87;60.85;101061.97;8362720;23;20213;-76
2023/12/17 03:49:58;;;;;;;17.73;12.47;;;;;;;5.97;61.05;101046.03;8361985;23;20292;-76
2023/12/17 03:53:19;;;;;;;16.37;12.83;;;;;;;6.26;60.57;101050.75;8361797;23;20330;-76
2023/12/17 03:56:46;;;;;;;18.90;13.23;;;;;;;6.39;59.85;101048.81;8362837;23;20269;-76
2023/12/17 04:00:10;;;;;;;20.57;14.90;;;;;;;6.16;59.73;101044.44;8363114;23;20162;-76
2023/12/17 04:03:31;;;;;;;17.90;13.37;;;;;;;6.03;60.47;101045.53;8363735;23;20185;-76
2023/12/17 04:06:54;;;;;;;14.93;12.07;;;;;;;5.68;61.14;101045.63;8362961;23;20781;-77
2023/12/17 04:10:16;;;;;;;17.73;13.67;;;;;;;5.57;62.56;101044.75;8361154;23;20575;-76
2023/12/17 04:13:37;;;;;;;17.63;13.00;;;;;;;5.60;62.20;101045.34;8361552;23;20217;-75
2023/12/17 04:16:59;;;;;;;18.23;13.90;;;;;;;5.97;61.40;101046.03;8363745;23;20714;-76
2023/12/17 04:20:20;;;;;;;14.63;12.13;;;;;;;6.07;60.74;101047.00;8362806;23;20261;-76
2023/12/17 04:23:44;;;;;;;15.73;11.90;;;;;;;6.09;60.56;101055.75;8361276;23;20213;-76
2023/12/17 04:27:06;;;;;;;16.70;11.57;;;;;;;5.76;61.19;101051.22;8361074;23;20311;-77
2023/12/17 04:30:28;;;;;;;17.40;12.20;;;;;;;5.62;61.40;101056.81;8361414;23;20237;-76
2023/12/17 04:33:49;;;;;;;16.63;12.70;;;;;;;5.89;61.16;101051.97;8362790;23;20186;-76
2023/12/17 04:37:10;;;;;;;14.47;12.23;;;;;;;5.88;61.21;101050.28;8363000;23;20265;-76
2023/12/17 04:40:33;;;;;;;14.90;12.20;;;;;;;5.89;60.93;101048.47;8361631;23;20738;-76
2023/12/17 04:43:55;;;;;;;16.83;12.60;;;;;;;6.02;60.35;101055.38;8362424;23;20275;-77
2023/12/17 04:47:16;;;;;;;16.77;12.90;;;;;;;5.84;60.21;101039.94;8362128;23;20215;-75
2023/12/17 04:50:38;;;;;;;15.43;12.37;;;;;;;5.93;61.07;101041.88;8360933;23;20210;-75
2023/12/17 04:53:59;;;;;;;16.13;12.80;;;;;;;6.12;60.59;101039.44;8363479;23;20207;-76
2023/12/17 04:57:22;;;;;;;20.83;14.23;;;;;;;6.18;60.05;101033.63;8363367;23;20185;-77
2023/12/17 05:00:44;;;;;;;20.03;15.43;;;;;;;5.93;60.84;101045.44;8361397;23;20256;-77
2023/12/17 05:04:05;;;;;;;18.17;14.13;;;;;;;5.80;60.50;101001.88;8361650;23;20272;-76
2023/12/17 05:07:27;;;;;;;21.73;15.13;;;;;;;5.73;61.14;101042.59;8361078;23;20332;-76
2023/12/17 05:10:48;;;;;;;16.63;12.73;;;;;;;5.72;61.50;101038.19;8361677;23;20221;-76
2023/12/17 05:14:11;;;;;;;17.17;13.03;;;;;;;5.95;61.72;101037.28;8362488;23;20264;-77
2023/12/17 05:17:32;;;;;;;15.63;13.17;;;;;;;6.33;60.80;101035.03;8360078;23;20672;-76
2023/12/17 05:20:54;;;;;;;17.07;13.40;;;;;;;5.81;61.56;101030.34;8362125;23;20202;-77
2023/12/17 05:24:15;;;;;;;17.63;13.43;;;;;;;6.12;61.14;101029.59;8362077;23;20624;-76
2023/12/17 05:27:37;;;;;;;20.17;12.67;;;;;;;6.41;60.30;101025.41;8362654;23;20213;-77
2023/12/17 05:31:00;;;;;;;13.90;12.33;;;;;;;6.46;60.04;101000.91;8359966;23;20239;-76
2023/12/17 05:34:22;;;;;;;18.50;12.93;;;;;;;6.64;59.58;101015.47;8362416;23;20271;-77
2023/12/17 05:37:43;;;;;;;18.57;12.73;;;;;;;6.75;59.11;101013.63;8362391;23;20261;-77
2023/12/17 05:41:05;;;;;;;14.53;12.23;;;;;;;6.62;59.54;101006.72;8361244;23;20234;-77
2023/12/17 05:44:27;;;;;;;13.57;11.60;;;;;;;6.22;60.05;101008.25;8362001;23;20205;-76
2023/12/17 05:47:49;;;;;;;15.00;11.33;;;;;;;6.54;59.63;101003.84;8361478;23;20217;-77
2023/12/17 05:51:11;;;;;;;13.83;11.10;;;;;;;6.49;58.94;101006.88;8359354;23;20289;-76
2023/12/17 05:54:33;;;;;;;15.17;12.27;;;;;;;6.65;59.08;101001.94;8361593;23;20617;-76
2023/12/17 05:57:54;;;;;;;14.97;12.43;;;;;;;6.17;59.96;101015.81;8361665;23;20182;-76
2023/12/17 06:01:15;;;;;;;14.07;12.37;;;;;;;5.99;60.77;101022.66;8360778;23;20326;-77
2023/12/17 06:04:38;;;;;;;14.73;12.33;;;;;;;5.55;61.60;101023.44;8361779;23;20320;-77
2023/12/17 06:08:00;;;;;;;12.60;11.17;;;;;;;5.86;60.81;100998.69;8361379;23;20272;-77
2023/12/17 06:11:21;;;;;;;14.00;12.33;;;;;;;6.04;60.82;101036.53;8361543;23;20295;-76
2023/12/17 06:14:43;;;;;;;11.97;10.73;;;;;;;5.35;61.98;101039.34;8363693;23;20719;-77
2023/12/17 06:18:04;;;;;;;14.30;11.73;;;;;;;6.16;60.30;101031.06;8363618;23;20214;-76
2023/12/17 06:21:28;;;;;;;13.70;11.83;;;;;;;6.08;60.28;101025.44;8362452;23;20202;-76
2023/12/17 06:24:49;;;;;;;18.80;12.70;;;;;;;5.90;60.55;101037.63;8359516;23;20312;-77
2023/12/17 06:28:10;;;;;;;15.00;12.47;;;;;;;5.93;60.47;101039.19;8362477;23;20224;-76
2023/12/17 06:31:32;;;;;;;15.97;13.13;;;;;;;6.07;60.30;101037.13;8362789;23;20654;-76
2023/12/17 06:34:53;;;;;;;15.50;12.30;;;;;;;6.12;60.17;101036.75;8363768;23;20187;-76
2023/12/17 06:38:16;;;;;;;16.27;11.90;;;;;;;6.32;59.79;101044.06;8363194;23;20219;-76
2023/12/17 06:41:43;;;;;;;16.13;12.07;;;;;;;6.20;59.66;101034.34;8362962;23;20245;-76
2023/12/17 06:45:06;;;;;;;15.17;11.67;;;;;;;6.16;59.62;101044.44;8361451;23;20168;-77
2023/12/17 06:48:27;;;;;;;17.43;11.93;;;;;;;6.29;59.21;101039.81;8361360;23;20217;-77
2023/12/17 06:51:49;;;;;;;15.70;12.20;;;;;;;6.01;59.20;101026.09;8362913;23;20237;-76
2023/12/17 06:55:12;;;;;;;15.83;12.97;;;;;;;6.18;59.30;101039.81;8363290;23;20632;-76
2023/12/17 06:58:33;;;;;;;13.07;11.67;;;;;;;6.22;59.31;101035.91;8363233;23;20653;-77
2023/12/17 07:01:55;;;;;;;17.10;12.23;;;;;;;5.74;59.85;101042.47;8362895;23;20800;-77
2023/12/17 07:05:16;;;;;;;13.70;11.10;;;;;;;5.49;60.53;101045.31;8363671;23;20277;-77
2023/12/17 07:08:38;;;;;;;16.53;11.73;;;;;;;6.12;60.15;101056.38;8363292;23;20224;-78
2023/12/17 07:12:01;;;;;;;13.10;11.20;;;;;;;5.96;59.94;101047.00;8364244;23;20759;-74
2023/12/17 07:15:22;;;;;;;15.30;11.93;;;;;;;5.98;59.85;101047.72;8363888;23;20524;-74
2023/12/17 07:18:44;;;;;;;15.20;11.83;;;;;;;5.93;60.41;101036.53;8362602;23;20262;-74
2023/12/17 07:22:05;;;;;;;13.20;11.23;;;;;;;5.84;59.71;101034.59;8362510;23;20380;-75
2023/12/17 07:25:27;;;;;;;15.07;11.67;;;;;;;5.88;59.76;101034.22;8363442;23;20192;-80
2023/12/17 07:28:50;;;;;;;12.60;10.90;;;;;;;6.13;60.00;101014.38;8360206;23;20181;-75
2023/12/17 07:32:12;;;;;;;15.00;11.10;;;;;;;6.14;59.66;101024.94;8363099;23;20209;-75
2023/12/17 07:35:33;;;;;;;13.27;11.27;;;;;;;6.20;59.44;101031.66;8361456;23;20339;-75
2023/12/17 07:38:54;;;;;;;13.33;11.93;;;;;;;5.76;59.93;101043.19;8362008;23;20648;-74
2023/12/17 07:42:16;;;;;;;14.23;11.93;;;;;;;6.02;60.02;101028.59;8362919;23;20289;-76
2023/12/17 07:45:40;;;;;;;13.57;10.97;;;;;;;5.86;59.62;101028.16;8363407;23;20220;-76
2023/12/17 07:49:01;;;;;;;16.40;12.17;;;;;;;5.46;60.90;101034.88;8362001;23;20212;-75
2023/12/17 07:52:23;;;;;;;17.27;13.40;;;;;;;5.89;60.45;101035.91;8362358;23;20241;-77
2023/12/17 07:55:45;;;;;;;14.93;12.80;;;;;;;6.34;59.86;101029.56;8361859;23;20241;-77
2023/12/17 07:59:06;;;;;;;15.70;12.47;;;;;;;6.10;60.05;101036.91;8362099;23;20223;-75
2023/12/17 08:02:30;;;;;;;19.17;13.80;;;;;;;5.76;60.87;101042.31;8363380;23;20202;-76
2023/12/17 08:05:52;;;;;;;17.40;13.20;;;;;;;6.28;60.20;101029.19;8363310;23;20720;-76
2023/12/17 08:09:15;;;;;;;13.47;12.00;;;;;;;6.55;59.62;101038.53;8361597;23;20194;-76
2023/12/17 08:12:37;;;;;;;15.43;11.77;;;;;;;6.73;58.96;101039.69;8361985;23;20210;-76
2023/12/17 08:15:58;;;;;;;12.37;10.80;;;;;;;6.60;58.90;101025.59;8361855;23;20276;-76
2023/12/17 08:19:21;;;;;;;14.30;11.77;;;;;;;6.91;59.32;101030.16;8362325;23;20222;-76
2023/12/17 08:22:43;;;;;;;16.83;11.63;;;;;;;7.04;58.72;101040.69;8363228;23;20329;-76
2023/12/17 08:26:05;;;;;;;12.00;10.00;;;;;;;7.27;58.46;101018.13;8361131;23;20263;-76
2023/12/17 08:29:26;;;;;;;11.17;8.97;;;;;;;7.09;57.44;100999.09;8361566;23;20270;-76
2023/12/17 08:32:48;;;;;;;9.37;8.37;;;;;;;7.33;57.42;101014.91;8361500;23;20284;-76
2023/12/17 08:36:11;;;;;;;10.23;9.07;;;;;;;7.48;57.34;101025.19;8361407;23;20586;-76
2023/12/17 08:39:33;;;;;;;9.90;8.90;;;;;;;8.30;56.14;101016.16;8359197;23;20723;-77
2023/12/17 08:42:54;;;;;;;9.77;8.63;;;;;;;9.65;52.23;101010.50;8362618;23;20205;-76
2023/12/17 08:46:16;;;;;;;9.87;8.47;;;;;;;9.95;50.62;101012.97;8361670;23;20266;-76
2023/12/17 08:49:37;;;;;;;9.73;8.37;;;;;;;9.56;50.77;101010.53;8360612;23;20219;-76
2023/12/17 08:53:00;;;;;;;10.67;8.63;;;;;;;9.17;51.87;101015.09;8361062;23;20261;-76
2023/12/17 08:56:21;;;;;;;9.13;8.27;;;;;;;8.98;53.20;101012.41;8358815;23;20241;-76
2023/12/17 08:59:43;;;;;;;7.93;7.13;;;;;;;8.52;54.04;101006.03;8361801;23;20208;-77
2023/12/17 09:03:05;;;;;;;9.10;7.97;;;;;;;8.20;55.03;101001.84;8362834;23;20210;-77
2023/12/17 09:06:27;;;;;;;8.67;7.73;;;;;;;8.32;55.31;101016.88;8362044;23;20188;-78
2023/12/17 09:09:50;;;;;;;8.53;7.70;;;;;;;8.44;55.31;101021.97;8361887;23;20525;-77
2023/12/17 09:13:11;;;;;;;8.60;7.37;;;;;;;8.51;55.13;101009.69;8360465;23;20308;-76
2023/12/17 09:16:33;;;;;;;9.37;8.40;;;;;;;8.49;54.84;101011.66;8361343;23;20337;-77
2023/12/17 09:19:54;;;;;;;9.87;8.33;;;;;;;8.65;55.31;100997.66;8361606;23;20649;-76
2023/12/17 09:23:16;;;;;;;9.60;8.23;;;;;;;8.96;54.29;101004.66;8362709;23;20518;-76
2023/12/17 09:26:39;;;;;;;8.63;7.73;;;;;;;8.80;55.16;101001.66;8361879;23;20199;-77
2023/12/17 09:30:00;;;;;;;9.33;8.17;;;;;;;9.07;54.20;100990.06;8360096;23;20272;-77
2023/12/17 09:33:23;;;;;;;9.93;8.10;;;;;;;8.84;55.13;101001.22;8360995;23;20803;-77
2023/12/17 09:36:44;;;;;;;9.50;8.60;;;;;;;9.13;54.87;101010.16;8361110;23;20220;-77
2023/12/17 09:40:07;;;;;;;10.43;8.27;;;;;;;9.63;53.62;101003.56;8360520;23;20207;-77
2023/12/17 09:43:30;;;;;;;10.57;8.47;;;;;;;9.79;52.99;101010.03;8361785;23;20286;-76
2023/12/17 09:46:52;;;;;;;9.50;7.40;;;;;;;10.09;52.32;100990.09;8361745;23;20556;-77
2023/12/17 09:50:13;;;;;;;8.57;7.63;;;;;;;10.13;51.97;100978.88;8360638;23;20618;-77
2023/12/17 09:53:36;;;;;;;8.87;7.97;;;;;;;10.24;51.99;100992.16;8361872;23;20221;-77
2023/12/17 09:56:58;;;;;;;8.80;7.90;;;;;;;10.21;51.93;100989.75;8360767;23;20260;-77
2023/12/17 10:00:21;;;;;;;8.47;7.57;;;;;;;10.40;51.94;100984.22;8361010;23;20618;-76
2023/12/17 10:03:42;;;;;;;7.57;6.77;;;;;;;10.27;51.62;100983.75;8362143;23;20312;-76
2023/12/17 10:07:05;;;;;;;8.07;7.27;;;;;;;10.60;51.59;100990.34;8361157;23;20264;-77
2023/12/17 10:10:26;;;;;;;7.50;6.80;;;;;;;10.60;51.79;100976.88;8360233;23;20573;-77
2023/12/17 10:13:49;;;;;;;8.37;7.47;;;;;;;10.61;51.61;100976.72;8359591;23;20338;-77
2023/12/17 10:17:13;;;;;;;6.80;6.20;;;;;;;10.77;51.80;100966.09;8361767;23;20190;-77
2023/12/17 10:20:34;;;;;;;7.50;6.70;;;;;;;10.85;51.51;100958.06;8360594;23;20215;-80
2023/12/17 10:23:56;;;;;;;7.40;6.30;;;;;;;11.25;50.79;100960.25;8362064;23;20185;-77
2023/12/17 10:27:19;;;;;;;8.50;7.00;;;;;;;11.48;50.59;100945.25;8359401;23;20240;-78
2023/12/17 10:30:42;;;;;;;6.90;6.10;;;;;;;11.48;48.78;100905.56;8360424;23;20228;-77
2023/12/17 10:34:15;;;;;;;6.37;5.77;;;;;;;11.93;49.20;100927.78;8359325;23;20224;-77
2023/12/17 10:37:37;;;;;;;6.90;6.20;;;;;;;12.17;47.85;100927.88;8360177;23;20176;-77
2023/12/17 10:40:59;;;;;;;7.70;6.90;;;;;;;12.57;47.89;100917.16;8358092;23;20667;-77
2023/12/17 10:44:21;;;;;;;7.07;6.37;;;;;;;12.58;47.07;100912.59;8358953;23;20272;-77
2023/12/17 10:47:42;;;;;;;6.97;6.27;;;;;;;12.71;47.31;100923.78;8358187;23;20268;-77
2023/12/17 10:51:06;;;;;;;7.13;5.80;;;;;;;12.86;46.81;100905.88;8357520;23;20336;-78
2023/12/17 10:54:27;;;;;;;6.63;5.57;;;;;;;12.61;47.32;100905.00;8360890;23;20213;-78
2023/12/17 10:57:53;;;;;;;6.47;5.77;;;;;;;12.82;46.16;100878.28;8362226;23;20229;-77
2023/12/17 11:01:15;;;;;;;6.27;5.60;;;;;;;12.90;46.83;100886.41;8362080;23;20686;-77
2023/12/17 11:04:37;;;;;;;6.43;5.83;;;;;;;13.03;45.89;100889.47;8363054;23;20248;-77
2023/12/17 11:08:00;;;;;;;6.67;6.00;;;;;;;13.08;46.05;100868.16;8362168;23;20296;-77
2023/12/17 11:11:22;;;;;;;6.00;5.40;;;;;;;13.27;45.51;100880.50;8361775;23;20752;-77
2023/12/17 11:14:44;;;;;;;7.17;5.63;;;;;;;13.49;45.16;100875.19;8361864;23;20505;-77
2023/12/17 11:18:05;;;;;;;10.17;5.97;;;;;;;13.83;45.26;100872.19;8362859;23;20190;-76
2023/12/17 11:21:27;;;;;;;6.17;4.83;;;;;;;13.63;44.21;100862.78;8362086;23;20288;-77
2023/12/17 11:24:50;;;;;;;6.93;5.90;;;;;;;13.58;44.77;100857.03;8362290;23;20205;-77
2023/12/17 11:28:19;;;;;;;6.17;5.57;;;;;;;13.24;44.45;100862.72;8362006;23;20214;-78
2023/12/17 11:31:41;;;;;;;8.27;5.87;;;;;;;13.30;45.46;100859.31;8362434;23;20303;-77
2023/12/17 11:35:03;;;;;;;5.90;5.30;;;;;;;13.05;45.78;100851.41;8364161;23;20312;-77
2023/12/17 11:38:24;;;;;;;5.90;5.00;;;;;;;13.52;45.78;100849.59;8363933;23;20807;-80
2023/12/17 11:41:48;;;;;;;82.57;34.87;;;;;;;13.78;46.72;100847.44;8361854;23;20206;-79
2023/12/17 11:45:10;;;;;;;86.50;64.70;;;;;;;13.39;47.42;100850.13;8362206;23;20632;-81
2023/12/17 11:48:32;;;;;;;6.90;6.13;;;;;;;13.78;45.36;100833.88;8365423;23;20296;-81
2023/12/17 11:51:54;;;;;;;5.63;5.03;;;;;;;13.60;44.83;100836.88;8362906;23;20288;-82
2023/12/17 11:55:15;;;;;;;5.50;5.00;;;;;;;13.56;44.98;100834.66;8363664;23;20186;-79
2023/12/17 11:58:47;;;;;;;6.43;5.70;;;;;;;14.03;43.92;100835.44;8363605;23;20267;-80
2023/12/17 12:02:09;;;;;;;6.13;5.53;;;;;;;14.46;44.10;100833.00;8362818;23;20202;-78
2023/12/17 12:05:30;;;;;;;6.60;5.70;;;;;;;13.71;43.76;100809.38;8376454;23;20178;-78
2023/12/17 12:08:52;;;;;;;5.43;4.97;;;;;;;14.22;44.41;100813.34;8363506;23;20318;-78
2023/12/17 12:12:17;;;;;;;6.67;5.07;;;;;;;14.73;42.90;100823.44;8361209;23;20237;-75
2023/12/17 12:15:40;;;;;;;5.70;5.10;;;;;;;14.75;42.14;100821.41;8359995;23;20711;-77
2023/12/17 12:19:03;;;;;;;5.97;5.47;;;;;;;14.51;42.53;100821.63;8358720;23;20584;-77
2023/12/17 12:22:27;;;;;;;5.70;5.00;;;;;;;14.63;42.38;100814.75;8359495;23;20204;-77
2023/12/17 12:25:49;;;;;;;6.13;4.70;;;;;;;14.18;42.58;100809.25;8358138;23;20239;-78
2023/12/17 12:29:10;;;;;;;7.10;5.10;;;;;;;14.30;43.38;100800.56;8360056;23;20264;-77
2023/12/17 12:32:34;;;;;;;5.13;4.63;;;;;;;14.59;42.30;100808.84;8363311;23;20343;-78
2023/12/17 12:36:05;;;;;;;5.37;4.87;;;;;;;14.66;42.30;100801.63;8363344;23;20228;-78
2023/12/17 12:39:27;;;;;;;6.70;4.53;;;;;;;14.66;42.35;100795.34;8360760;23;20269;-78
2023/12/17 12:43:01;;;;;;;7.13;6.33;;;;;;;13.83;45.20;100786.25;8362396;23;20291;-78
2023/12/17 12:46:23;;;;;;;12.13;8.40;;;;;;;13.82;44.89;100784.56;8362954;23;20224;-76
2023/12/17 12:49:46;;;;;;;6.83;6.20;;;;;;;14.46;43.07;100778.72;8362181;23;20186;-78
2023/12/17 12:53:08;;;;;;;6.33;5.73;;;;;;;14.21;43.06;100765.53;8362653;23;20285;-76
2023/12/17 12:56:30;;;;;;;6.80;6.13;;;;;;;14.59;42.80;100764.53;8362434;23;20182;-77
2023/12/17 12:59:51;;;;;;;7.27;5.80;;;;;;;14.48;43.24;100759.53;8361814;23;20328;-78
2023/12/17 13:03:13;;;;;;;7.63;6.40;;;;;;;14.20;43.97;100752.97;8361816;23;20351;-77
2023/12/17 13:06:36;;;;;;;6.40;5.60;;;;;;;14.71;43.61;100754.91;8362984;23;20247;-77
2023/12/17 13:09:57;;;;;;;11.70;8.63;;;;;;;13.91;44.21;100739.25;8360934;23;20185;-77
2023/12/17 13:13:19;;;;;;;11.27;8.07;;;;;;;14.00;44.94;100743.59;8362263;23;20306;-77
2023/12/17 13:16:40;;;;;;;5.60;5.10;;;;;;;13.58;44.63;100718.78;8362027;23;20216;-77
2023/12/17 13:20:02;;;;;;;7.60;5.23;;;;;;;13.33;44.26;100745.16;8359474;23;20276;-76
2023/12/17 13:23:26;;;;;;;5.90;5.33;;;;;;;13.98;44.47;100745.66;8362630;23;20202;-76
2023/12/17 13:26:47;;;;;;;8.37;5.37;;;;;;;13.69;44.75;100734.66;8361323;23;20264;-76
2023/12/17 13:30:10;;;;;;;6.20;5.50;;;;;;;14.16;44.76;100725.34;8361255;23;20213;-77
2023/12/17 13:33:31;;;;;;;6.80;6.10;;;;;;;14.25;45.15;100726.16;8361552;23;20511;-76
2023/12/17 13:36:53;;;;;;;8.13;6.37;;;;;;;14.18;45.47;100719.72;8361405;23;20232;-77
2023/12/17 13:40:16;;;;;;;8.37;7.37;;;;;;;14.12;45.59;100709.59;8360649;23;20226;-76
2023/12/17 13:43:38;;;;;;;10.60;8.73;;;;;;;13.38;48.09;100717.53;8361563;23;20185;-77
2023/12/17 13:46:59;;;;;;;9.30;8.40;;;;;;;13.79;47.22;100700.88;8362369;23;20185;-76
2023/12/17 13:50:21;;;;;;;8.20;7.33;;;;;;;13.19;48.59;100682.75;8358810;23;20219;-77
2023/12/17 13:53:43;;;;;;;9.23;7.50;;;;;;;13.33;48.42;100709.09;8359922;23;20678;-76
2023/12/17 13:57:06;;;;;;;8.00;7.20;;;;;;;13.63;47.67;100703.66;8360200;23;20181;-76
2023/12/17 14:00:28;;;;;;;7.97;7.17;;;;;;;13.24;48.36;100702.88;8359881;23;20295;-77
2023/12/17 14:03:49;;;;;;;9.03;6.43;;;;;;;13.30;47.98;100707.59;8360458;23;20240;-76
2023/12/17 14:07:11;;;;;;;8.60;6.97;;;;;;;13.06;48.48;100698.72;8360608;23;20193;-76
2023/12/17 14:10:32;;;;;;;8.03;6.70;;;;;;;13.02;48.28;100675.69;8360358;23;20702;-76
2023/12/17 14:13:56;;;;;;;8.10;5.90;;;;;;;13.38;47.48;100688.56;8358082;23;20209;-76
2023/12/17 14:17:17;;;;;;;7.20;6.50;;;;;;;13.38;47.29;100691.28;8360302;23;20186;-76
2023/12/17 14:20:39;;;;;;;6.63;5.90;;;;;;;13.30;47.33;100699.47;8359531;23;20264;-76
2023/12/17 14:24:00;;;;;;;7.07;6.00;;;;;;;13.22;47.57;100707.59;8359750;23;20221;-76
2023/12/17 14:27:22;;;;;;;6.20;4.87;;;;;;;13.06;48.50;100696.88;8358488;23;20621;-76
2023/12/17 14:30:45;;;;;;;5.83;4.73;;;;;;;13.20;47.87;100690.69;8360587;23;20229;-76
2023/12/17 14:34:08;;;;;;;4.50;4.10;;;;;;;12.90;48.44;100691.47;8363824;23;20233;-77
2023/12/17 14:37:31;;;;;;;5.40;4.87;;;;;;;12.51;49.02;100709.47;8359992;23;20190;-77
2023/12/17 14:40:53;;;;;;;5.63;5.10;;;;;;;12.51;49.23;100705.94;8360408;23;20563;-75
2023/12/17 14:44:14;;;;;;;7.13;5.47;;;;;;;12.47;49.24;100705.44;8356362;23;20224;-76
2023/12/17 14:47:37;;;;;;;5.60;5.10;;;;;;;12.35;49.32;100697.84;8372951;23;20270;-77
2023/12/17 14:50:59;;;;;;;7.70;5.70;;;;;;;12.04;49.73;100684.16;8362902;23;20299;-77
2023/12/17 14:54:20;;;;;;;7.53;5.50;;;;;;;12.10;49.96;100701.56;8360157;23;20292;-77
2023/12/17 14:57:42;;;;;;;5.80;5.20;;;;;;;11.77;51.24;100699.84;8362542;23;20259;-77
2023/12/17 15:01:03;;;;;;;8.00;6.40;;;;;;;11.60;51.69;100720.59;8356738;23;20828;-74
2023/12/17 15:04:27;;;;;;;10.07;7.30;;;;;;;11.78;51.16;100717.75;8363243;23;20609;-78
2023/12/17 15:07:48;;;;;;;13.43;10.10;;;;;;;11.33;52.25;100714.56;8363994;23;20665;-79
2023/12/17 15:11:10;;;;;;;11.37;9.13;;;;;;;11.45;51.94;100714.09;8362364;23;20232;-79
2023/12/17 15:14:32;;;;;;;10.47;8.90;;;;;;;10.96;53.11;100722.16;8362412;23;20286;-78
2023/12/17 15:17:54;;;;;;;15.77;10.73;;;;;;;10.97;52.68;100723.84;8361934;23;20653;-79
2023/12/17 15:21:20;;;;;;;14.93;11.00;;;;;;;10.74;53.77;100730.81;8361020;23;20287;-79
2023/12/17 15:24:41;;;;;;;14.90;10.07;;;;;;;10.91;53.14;100719.09;8362847;23;20761;-79
2023/12/17 15:28:03;;;;;;;16.43;12.43;;;;;;;10.41;54.33;100724.38;8364515;23;20196;-80
2023/12/17 15:31:25;;;;;;;18.83;14.43;;;;;;;10.46;54.25;100716.63;8362308;23;20238;-79
2023/12/17 15:34:46;;;;;;;22.93;15.73;;;;;;;10.41;54.57;100724.38;8362640;23;20236;-78